Time;durP1;ratioP1;P1;durP2;ratioP2;P2;SDS_P1;SDS_P2;PMS_P1;PMS_P2;Temp;Humidity;BMP_temperature;BMP_pressure;BME280_temperature;BME280_humidity;BME280_pressure;Samples;Min_cycle;Max_cycle;Signal;HPM_P1;HPM_P2
2021/07/19 00:00:25;;;;;;;8.70;6.60;;;;;;;;;;5015025;28;20440;-74
2021/07/19 00:02:54;;;;;;;8.53;6.47;;;;;;;;;;5014824;28;20453;-74
2021/07/19 00:05:24;;;;;;;9.50;6.80;;;;;;;;;;5014802;28;20505;-74
2021/07/19 00:07:51;;;;;;;6.47;5.60;;;;;;;;;;5014409;28;20444;-73
2021/07/19 00:10:20;;;;;;;9.30;6.43;;;;;;;;;;5015210;28;20477;-73
2021/07/19 00:12:47;;;;;;;9.10;6.90;;;;;;;;;;5014324;28;20516;-73
2021/07/19 00:15:16;;;;;;;9.40;7.00;;;;;;;;;;5014687;28;20440;-72
2021/07/19 00:17:44;;;;;;;7.43;6.40;;;;;;;;;;5014688;28;20539;-74
2021/07/19 00:20:12;;;;;;;8.63;6.47;;;;;;;;;;5014746;28;20451;-74
2021/07/19 00:22:41;;;;;;;8.43;6.87;;;;;;;;;;5014511;28;20449;-73
2021/07/19 00:25:10;;;;;;;8.80;7.07;;;;;;;;;;5014455;28;20444;-73
2021/07/19 00:27:37;;;;;;;10.03;6.60;;;;;;;;;;5014142;28;21010;-73
2021/07/19 00:30:04;;;;;;;14.37;7.37;;;;;;;;;;5014104;28;20922;-73
2021/07/19 00:32:32;;;;;;;9.50;7.43;;;;;;;;;;5013967;28;20837;-73
2021/07/19 00:34:59;;;;;;;12.77;7.93;;;;;;;;;;5014629;28;20534;-73
2021/07/19 00:37:26;;;;;;;9.67;7.30;;;;;;;;;;5014377;28;21004;-72
2021/07/19 00:39:55;;;;;;;11.50;7.50;;;;;;;;;;5014039;28;20445;-75
2021/07/19 00:42:22;;;;;;;8.07;7.00;;;;;;;;;;5013957;28;20964;-74
2021/07/19 00:44:49;;;;;;;10.80;6.60;;;;;;;;;;5013725;28;20944;-75
2021/07/19 00:47:16;;;;;;;8.40;7.10;;;;;;;;;;5014097;28;20797;-74
2021/07/19 00:49:44;;;;;;;8.10;7.10;;;;;;;;;;5014459;28;20439;-74
2021/07/19 00:52:11;;;;;;;10.63;8.07;;;;;;;;;;5013670;28;20511;-74
2021/07/19 00:54:40;;;;;;;10.17;7.77;;;;;;;;;;5014070;28;20454;-74
2021/07/19 00:57:08;;;;;;;12.47;7.80;;;;;;;;;;5013766;28;20482;-74
2021/07/19 00:59:36;;;;;;;10.97;7.23;;;;;;;;;;5013653;28;20447;-74
2021/07/19 01:02:05;;;;;;;8.73;7.50;;;;;;;;;;5013920;28;20443;-75
2021/07/19 01:04:32;;;;;;;8.77;7.63;;;;;;;;;;5013730;28;20451;-75
2021/07/19 01:07:02;;;;;;;10.90;7.40;;;;;;;;;;5013921;28;20494;-75
2021/07/19 01:09:29;;;;;;;10.70;7.37;;;;;;;;;;5013515;28;20454;-74
2021/07/19 01:11:57;;;;;;;11.77;8.07;;;;;;;;;;5013834;28;20906;-74
2021/07/19 01:14:25;;;;;;;11.63;7.50;;;;;;;;;;5013811;28;20527;-74
2021/07/19 01:16:53;;;;;;;10.40;7.60;;;;;;;;;;5013746;28;20595;-75
2021/07/19 01:19:22;;;;;;;9.43;7.90;;;;;;;;;;5013742;28;20437;-74
2021/07/19 01:21:53;;;;;;;10.90;7.37;;;;;;;;;;5013977;28;20450;-74
2021/07/19 01:24:30;;;;;;;10.93;7.90;;;;;;;;;;5013940;28;20464;-74
2021/07/19 01:27:08;;;;;;;10.67;8.00;;;;;;;;;;5014543;28;20490;-75
2021/07/19 01:29:39;;;;;;;11.50;7.93;;;;;;;;;;5014160;28;20525;-74
2021/07/19 01:32:07;;;;;;;11.10;7.80;;;;;;;;;;5014163;28;20496;-74
2021/07/19 01:34:35;;;;;;;9.47;7.93;;;;;;;;;;5013753;28;20456;-75
2021/07/19 01:37:03;;;;;;;11.30;8.70;;;;;;;;;;5013249;28;20965;-75
2021/07/19 01:39:32;;;;;;;9.20;7.80;;;;;;;;;;5013285;28;20535;-74
2021/07/19 01:42:00;;;;;;;8.20;7.30;;;;;;;;;;5014003;28;20447;-73
2021/07/19 01:44:27;;;;;;;12.17;8.20;;;;;;;;;;5013945;28;20542;-73
2021/07/19 01:46:57;;;;;;;11.53;8.30;;;;;;;;;;5013683;28;20445;-74
2021/07/19 01:49:24;;;;;;;10.10;7.30;;;;;;;;;;5013921;28;20465;-74
2021/07/19 01:51:52;;;;;;;11.43;8.27;;;;;;;;;;5013035;28;21019;-74
2021/07/19 01:54:20;;;;;;;12.53;8.67;;;;;;;;;;5014187;28;20534;-73
2021/07/19 01:56:49;;;;;;;9.50;7.60;;;;;;;;;;5015492;28;20484;-74
2021/07/19 01:59:16;;;;;;;14.57;7.63;;;;;;;;;;5016854;28;20452;-74
2021/07/19 02:01:43;;;;;;;12.57;9.40;;;;;;;;;;5017442;28;20447;-74
2021/07/19 02:04:12;;;;;;;9.97;8.00;;;;;;;;;;5017508;28;20469;-74
2021/07/19 02:06:40;;;;;;;11.93;8.60;;;;;;;;;;5016834;28;20993;-75
2021/07/19 02:09:08;;;;;;;11.27;7.80;;;;;;;;;;5016781;28;20536;-74
2021/07/19 02:11:36;;;;;;;9.47;8.00;;;;;;;;;;5016554;28;20444;-75
2021/07/19 02:14:06;;;;;;;10.13;7.77;;;;;;;;;;5016610;28;20478;-74
2021/07/19 02:16:34;;;;;;;13.60;9.00;;;;;;;;;;5017271;28;20440;-74
2021/07/19 02:19:02;;;;;;;12.60;8.30;;;;;;;;;;5016945;28;20436;-75
2021/07/19 02:21:30;;;;;;;10.90;8.57;;;;;;;;;;5017135;28;20467;-74
2021/07/19 02:23:58;;;;;;;13.20;7.97;;;;;;;;;;5016949;28;20474;-74
2021/07/19 02:26:26;;;;;;;12.63;9.20;;;;;;;;;;5016339;28;20929;-74
2021/07/19 02:28:54;;;;;;;13.70;9.60;;;;;;;;;;5016341;28;20447;-74
2021/07/19 02:31:23;;;;;;;15.80;9.37;;;;;;;;;;5016676;28;20439;-74
2021/07/19 02:33:51;;;;;;;10.50;9.00;;;;;;;;;;5016406;28;20837;-74
2021/07/19 02:36:19;;;;;;;12.60;9.30;;;;;;;;;;5016470;28;20450;-75
2021/07/19 02:38:49;;;;;;;12.83;9.10;;;;;;;;;;5016484;28;20443;-75
2021/07/19 02:41:18;;;;;;;10.83;9.73;;;;;;;;;;5016577;28;20443;-75
2021/07/19 02:43:46;;;;;;;12.43;10.77;;;;;;;;;;5016332;28;20447;-75
2021/07/19 02:46:14;;;;;;;10.93;9.43;;;;;;;;;;5016301;28;20447;-74
2021/07/19 02:48:42;;;;;;;14.10;10.57;;;;;;;;;;5015963;28;20579;-74
2021/07/19 02:51:11;;;;;;;14.57;9.40;;;;;;;;;;5016440;28;20443;-74
2021/07/19 02:53:38;;;;;;;11.67;9.97;;;;;;;;;;5016641;28;20869;-74
2021/07/19 02:56:08;;;;;;;12.90;10.33;;;;;;;;;;5016136;28;20538;-75
2021/07/19 02:58:37;;;;;;;16.33;10.17;;;;;;;;;;5015965;28;20925;-73
2021/07/19 03:01:06;;;;;;;13.30;10.73;;;;;;;;;;5015690;28;20494;-73
2021/07/19 03:03:36;;;;;;;13.17;10.37;;;;;;;;;;5015986;28;20531;-73
2021/07/19 03:06:04;;;;;;;19.73;10.57;;;;;;;;;;5016057;28;20486;-74
2021/07/19 03:08:32;;;;;;;10.87;9.13;;;;;;;;;;5015405;28;20443;-72
2021/07/19 03:11:00;;;;;;;11.53;9.33;;;;;;;;;;5015816;28;20443;-72
2021/07/19 03:13:30;;;;;;;15.70;10.47;;;;;;;;;;5015701;28;20480;-72
2021/07/19 03:15:58;;;;;;;13.10;10.53;;;;;;;;;;5015985;28;20451;-72
2021/07/19 03:18:26;;;;;;;11.90;9.50;;;;;;;;;;5015984;28;20512;-72
2021/07/19 03:20:54;;;;;;;16.83;11.40;;;;;;;;;;5015642;28;20446;-73
2021/07/19 03:23:24;;;;;;;13.93;9.90;;;;;;;;;;5016019;28;20453;-73
2021/07/19 03:25:52;;;;;;;13.40;10.60;;;;;;;;;;5015551;28;20443;-73
2021/07/19 03:28:21;;;;;;;20.77;12.50;;;;;;;;;;5015526;28;20443;-72
2021/07/19 03:30:50;;;;;;;13.97;10.93;;;;;;;;;;5015411;28;20445;-72
2021/07/19 03:33:18;;;;;;;17.60;10.23;;;;;;;;;;5015581;28;20482;-72
2021/07/19 03:35:45;;;;;;;13.97;10.43;;;;;;;;;;5015108;28;20451;-72
2021/07/19 03:38:15;;;;;;;12.93;10.37;;;;;;;;;;5015462;28;20812;-73
2021/07/19 03:40:42;;;;;;;13.70;10.70;;;;;;;;;;5014917;28;20440;-72
2021/07/19 03:43:10;;;;;;;17.07;11.60;;;;;;;;;;5014893;28;20453;-72
2021/07/19 03:45:38;;;;;;;17.17;12.17;;;;;;;;;;5014857;28;20443;-72
2021/07/19 03:48:07;;;;;;;14.90;12.37;;;;;;;;;;5015157;28;20550;-72
2021/07/19 03:50:34;;;;;;;18.27;12.17;;;;;;;;;;5014758;28;20933;-72
2021/07/19 03:53:02;;;;;;;19.17;12.73;;;;;;;;;;5015626;28;20479;-72
2021/07/19 03:55:29;;;;;;;15.00;11.20;;;;;;;;;;5014968;28;20471;-72
2021/07/19 03:57:56;;;;;;;18.10;11.93;;;;;;;;;;5014718;28;20447;-73
2021/07/19 04:00:23;;;;;;;19.40;12.83;;;;;;;;;;5014469;28;20439;-73
2021/07/19 04:02:52;;;;;;;14.67;11.73;;;;;;;;;;5014885;28;20457;-72
2021/07/19 04:05:22;;;;;;;14.27;11.70;;;;;;;;;;5014885;28;20546;-73
2021/07/19 04:07:50;;;;;;;16.27;12.37;;;;;;;;;;5014505;28;20505;-73
2021/07/19 04:10:18;;;;;;;17.17;12.27;;;;;;;;;;5014812;28;20502;-72
2021/07/19 04:12:46;;;;;;;19.47;11.73;;;;;;;;;;5014656;28;20490;-72
2021/07/19 04:15:14;;;;;;;17.40;12.43;;;;;;;;;;5014351;28;20535;-73
2021/07/19 04:17:42;;;;;;;20.77;12.77;;;;;;;;;;5014627;28;20444;-73
2021/07/19 04:20:10;;;;;;;19.07;11.40;;;;;;;;;;5013813;28;20817;-74
2021/07/19 04:22:39;;;;;;;19.23;12.67;;;;;;;;;;5014222;28;20451;-74
2021/07/19 04:25:07;;;;;;;22.33;12.27;;;;;;;;;;5013085;28;20789;-75
2021/07/19 04:27:34;;;;;;;18.27;13.40;;;;;;;;;;5014334;28;20439;-75
2021/07/19 04:30:01;;;;;;;16.30;11.40;;;;;;;;;;5014173;28;20804;-75
2021/07/19 04:32:29;;;;;;;23.33;14.30;;;;;;;;;;5014965;28;20455;-75
2021/07/19 04:34:56;;;;;;;17.90;12.40;;;;;;;;;;5014705;28;20454;-75
2021/07/19 04:37:23;;;;;;;19.00;12.93;;;;;;;;;;5013975;28;20450;-76
2021/07/19 04:39:52;;;;;;;16.40;11.77;;;;;;;;;;5014825;28;20542;-76
2021/07/19 04:42:19;;;;;;;15.90;12.17;;;;;;;;;;5014246;28;20941;-76
2021/07/19 04:44:46;;;;;;;17.57;13.50;;;;;;;;;;5013883;28;20929;-76
2021/07/19 04:47:14;;;;;;;20.90;12.40;;;;;;;;;;5014192;28;20443;-75
2021/07/19 04:49:41;;;;;;;18.80;12.43;;;;;;;;;;5014132;28;20447;-77
2021/07/19 04:52:08;;;;;;;18.47;12.80;;;;;;;;;;5014108;28;20467;-76
2021/07/19 04:54:38;;;;;;;15.53;12.50;;;;;;;;;;5014227;28;20994;-75
2021/07/19 04:57:08;;;;;;;15.70;11.73;;;;;;;;;;5014034;28;20431;-76
2021/07/19 04:59:40;;;;;;;20.73;13.10;;;;;;;;;;5013999;28;20451;-76
2021/07/19 05:02:10;;;;;;;18.43;11.67;;;;;;;;;;5014171;28;20431;-74
2021/07/19 05:04:37;;;;;;;17.53;13.20;;;;;;;;;;5013487;28;20472;-75
2021/07/19 05:07:06;;;;;;;17.87;12.40;;;;;;;;;;5013709;28;20792;-75
2021/07/19 05:09:33;;;;;;;17.20;12.10;;;;;;;;;;5014455;28;20902;-76
2021/07/19 05:12:01;;;;;;;20.70;12.70;;;;;;;;;;5013504;28;20932;-75
2021/07/19 05:14:30;;;;;;;20.07;11.70;;;;;;;;;;5013423;28;20982;-70
2021/07/19 05:16:58;;;;;;;17.87;11.63;;;;;;;;;;5013519;28;20444;-70
2021/07/19 05:19:25;;;;;;;20.00;11.97;;;;;;;;;;5013748;28;20452;-70
2021/07/19 05:21:52;;;;;;;15.83;11.70;;;;;;;;;;5013388;28;20451;-70
2021/07/19 05:24:30;;;;;;;23.77;12.50;;;;;;;;;;5013273;28;20461;-69
2021/07/19 05:26:57;;;;;;;14.93;11.70;;;;;;;;;;5014268;28;20433;-69
2021/07/19 05:29:25;;;;;;;17.67;12.30;;;;;;;;;;5013545;28;20530;-69
2021/07/19 05:31:53;;;;;;;16.87;12.60;;;;;;;;;;5016858;28;20542;-71
2021/07/19 05:34:21;;;;;;;17.77;12.57;;;;;;;;;;5016886;28;20493;-70
2021/07/19 05:36:48;;;;;;;19.40;12.63;;;;;;;;;;5017090;28;20448;-69
2021/07/19 05:39:15;;;;;;;18.23;12.20;;;;;;;;;;5017519;28;20447;-71
2021/07/19 05:41:42;;;;;;;17.40;13.27;;;;;;;;;;5017515;28;20469;-71
2021/07/19 05:44:10;;;;;;;19.80;12.07;;;;;;;;;;5017485;28;20446;-71
2021/07/19 05:46:37;;;;;;;17.40;12.23;;;;;;;;;;5017379;28;20452;-71
2021/07/19 05:49:06;;;;;;;21.80;11.43;;;;;;;;;;5017523;28;20477;-71
2021/07/19 05:51:34;;;;;;;18.50;12.60;;;;;;;;;;5018254;28;20455;-71
2021/07/19 05:54:01;;;;;;;17.60;11.40;;;;;;;;;;5016890;28;21001;-71
2021/07/19 05:56:28;;;;;;;19.23;10.83;;;;;;;;;;5016936;28;20942;-71
2021/07/19 05:58:55;;;;;;;15.30;11.07;;;;;;;;;;5016821;28;20444;-71
2021/07/19 06:01:22;;;;;;;15.13;12.00;;;;;;;;;;5017493;28;20448;-71
2021/07/19 06:03:50;;;;;;;16.33;10.60;;;;;;;;;;5017046;28;20451;-71
2021/07/19 06:06:18;;;;;;;16.83;10.57;;;;;;;;;;5017437;28;20473;-71
2021/07/19 06:08:45;;;;;;;15.30;10.43;;;;;;;;;;5016623;28;21019;-70
2021/07/19 06:11:13;;;;;;;16.10;10.27;;;;;;;;;;5016651;28;20447;-70
2021/07/19 06:13:40;;;;;;;12.37;9.33;;;;;;;;;;5016858;28;20509;-71
2021/07/19 06:16:07;;;;;;;16.50;9.60;;;;;;;;;;5016531;28;20534;-70
2021/07/19 06:18:34;;;;;;;14.37;9.93;;;;;;;;;;5016561;28;20448;-71
2021/07/19 06:21:01;;;;;;;19.87;11.30;;;;;;;;;;5016467;28;20944;-70
2021/07/19 06:23:30;;;;;;;12.50;9.30;;;;;;;;;;5016766;28;20948;-70
2021/07/19 06:25:57;;;;;;;14.27;9.23;;;;;;;;;;5016710;28;20455;-70
2021/07/19 06:28:24;;;;;;;10.50;7.70;;;;;;;;;;5016304;28;20537;-70
2021/07/19 06:30:53;;;;;;;11.67;8.10;;;;;;;;;;5017336;28;20526;-70
2021/07/19 06:33:20;;;;;;;10.73;7.90;;;;;;;;;;5016985;28;20491;-70
2021/07/19 06:35:48;;;;;;;13.27;9.30;;;;;;;;;;5016676;28;20548;-70
2021/07/19 06:38:15;;;;;;;12.83;8.60;;;;;;;;;;5016907;28;20455;-70
2021/07/19 06:40:44;;;;;;;11.30;7.77;;;;;;;;;;5016362;28;20443;-70
2021/07/19 06:43:11;;;;;;;20.83;8.20;;;;;;;;;;5015112;28;20456;-70
2021/07/19 06:45:38;;;;;;;12.67;7.73;;;;;;;;;;5015906;28;20456;-70
2021/07/19 06:48:06;;;;;;;12.50;8.00;;;;;;;;;;5016172;28;20527;-70
2021/07/19 06:50:33;;;;;;;13.13;8.53;;;;;;;;;;5016204;28;20478;-70
2021/07/19 06:53:00;;;;;;;16.57;8.73;;;;;;;;;;5016311;28;20436;-70
2021/07/19 06:55:27;;;;;;;10.13;8.47;;;;;;;;;;5015791;28;20443;-70
2021/07/19 06:57:56;;;;;;;10.73;8.07;;;;;;;;;;5016114;28;20448;-70
2021/07/19 07:00:23;;;;;;;10.67;8.30;;;;;;;;;;5015674;28;20452;-70
2021/07/19 07:02:50;;;;;;;15.63;9.60;;;;;;;;;;5015624;28;20447;-70
2021/07/19 07:05:18;;;;;;;9.93;8.20;;;;;;;;;;5015763;28;20487;-71
2021/07/19 07:07:45;;;;;;;12.37;8.20;;;;;;;;;;5015970;28;20456;-71
2021/07/19 07:10:13;;;;;;;12.53;8.73;;;;;;;;;;5016076;28;20458;-71
2021/07/19 07:12:43;;;;;;;16.13;7.80;;;;;;;;;;5015791;28;20450;-71
2021/07/19 07:15:12;;;;;;;14.73;8.13;;;;;;;;;;5015519;28;20487;-71
2021/07/19 07:17:40;;;;;;;12.67;8.50;;;;;;;;;;5016164;28;20450;-73
2021/07/19 07:20:08;;;;;;;17.47;8.97;;;;;;;;;;5015675;28;20807;-71
2021/07/19 07:22:35;;;;;;;12.47;7.13;;;;;;;;;;5015572;28;20468;-71
2021/07/19 07:25:03;;;;;;;11.10;7.33;;;;;;;;;;5015559;28;20452;-71
2021/07/19 07:27:30;;;;;;;13.50;8.30;;;;;;;;;;5015220;28;20456;-71
2021/07/19 07:29:57;;;;;;;15.20;7.17;;;;;;;;;;5015183;28;20489;-71
2021/07/19 07:32:26;;;;;;;11.50;8.90;;;;;;;;;;5015076;28;20531;-71
2021/07/19 07:34:53;;;;;;;15.10;9.50;;;;;;;;;;5015360;28;20532;-71
2021/07/19 07:37:20;;;;;;;12.40;8.40;;;;;;;;;;5014999;28;20563;-71
2021/07/19 07:39:47;;;;;;;12.57;8.27;;;;;;;;;;5014855;28;20976;-71
2021/07/19 07:42:15;;;;;;;14.60;8.33;;;;;;;;;;5015261;28;20514;-71
2021/07/19 07:44:42;;;;;;;15.57;8.67;;;;;;;;;;5014795;28;20476;-71
2021/07/19 07:47:09;;;;;;;17.03;9.63;;;;;;;;;;5014916;28;20515;-71
2021/07/19 07:49:38;;;;;;;14.47;7.40;;;;;;;;;;5014791;28;20447;-70
2021/07/19 07:52:06;;;;;;;10.23;7.63;;;;;;;;;;5015058;28;20450;-71
2021/07/19 07:54:33;;;;;;;10.83;7.80;;;;;;;;;;5014527;28;20480;-70
2021/07/19 07:57:02;;;;;;;13.87;7.70;;;;;;;;;;5014955;28;20460;-71
2021/07/19 07:59:30;;;;;;;11.53;8.13;;;;;;;;;;5014967;28;20455;-71
2021/07/19 08:01:58;;;;;;;12.23;7.63;;;;;;;;;;5015100;28;20447;-71
2021/07/19 08:04:25;;;;;;;14.27;7.90;;;;;;;;;;5014495;28;20500;-71
2021/07/19 08:06:54;;;;;;;14.57;7.90;;;;;;;;;;5014843;28;20438;-71
2021/07/19 08:09:21;;;;;;;9.77;7.73;;;;;;;;;;5014749;28;20447;-71
2021/07/19 08:11:48;;;;;;;11.50;8.20;;;;;;;;;;5014668;28;20452;-71
2021/07/19 08:14:16;;;;;;;10.53;8.00;;;;;;;;;;5014173;28;20476;-71
2021/07/19 08:16:43;;;;;;;17.83;9.20;;;;;;;;;;5014600;28;20471;-70
2021/07/19 08:19:10;;;;;;;12.50;9.37;;;;;;;;;;5014444;28;20906;-71
2021/07/19 08:21:39;;;;;;;12.70;9.10;;;;;;;;;;5014250;28;21049;-71
2021/07/19 08:24:08;;;;;;;11.17;9.20;;;;;;;;;;5014610;28;20536;-71
2021/07/19 08:26:36;;;;;;;14.50;8.07;;;;;;;;;;5014284;28;20532;-71
2021/07/19 08:29:03;;;;;;;10.93;8.30;;;;;;;;;;5013977;28;20441;-71
2021/07/19 08:31:30;;;;;;;14.10;8.77;;;;;;;;;;5014339;28;20489;-71
2021/07/19 08:33:58;;;;;;;14.07;9.07;;;;;;;;;;5014267;28;20576;-71
2021/07/19 08:36:25;;;;;;;15.33;9.10;;;;;;;;;;5014691;28;20804;-71
2021/07/19 08:38:52;;;;;;;10.40;8.20;;;;;;;;;;5013874;28;20452;-71
2021/07/19 08:41:21;;;;;;;11.13;8.00;;;;;;;;;;5013838;28;20975;-71
2021/07/19 08:43:48;;;;;;;11.20;8.30;;;;;;;;;;5014086;28;20525;-71
2021/07/19 08:46:17;;;;;;;12.97;8.70;;;;;;;;;;5013766;28;20952;-71
2021/07/19 08:48:45;;;;;;;13.50;8.73;;;;;;;;;;5014028;28;20451;-71
2021/07/19 08:51:13;;;;;;;12.00;8.80;;;;;;;;;;5014096;28;20433;-71
2021/07/19 08:53:41;;;;;;;9.63;7.43;;;;;;;;;;5013909;28;20550;-71
2021/07/19 08:56:08;;;;;;;12.40;8.60;;;;;;;;;;5013689;28;20438;-71
2021/07/19 08:58:37;;;;;;;10.70;8.47;;;;;;;;;;5013949;28;20524;-71
2021/07/19 09:01:05;;;;;;;11.70;8.00;;;;;;;;;;5013897;28;20454;-70
2021/07/19 09:03:32;;;;;;;13.67;9.00;;;;;;;;;;5013950;28;20496;-70
2021/07/19 09:05:59;;;;;;;15.23;9.03;;;;;;;;;;5013260;28;20476;-71
2021/07/19 09:08:26;;;;;;;15.67;10.00;;;;;;;;;;5014380;28;20795;-70
2021/07/19 09:10:54;;;;;;;14.37;8.90;;;;;;;;;;5013787;28;20445;-70
2021/07/19 09:13:22;;;;;;;11.90;9.67;;;;;;;;;;5013503;28;20520;-71
2021/07/19 09:15:53;;;;;;;18.23;9.93;;;;;;;;;;5013657;28;20476;-71
2021/07/19 09:18:24;;;;;;;12.20;9.07;;;;;;;;;;5013924;28;20446;-70
2021/07/19 09:20:51;;;;;;;12.70;8.07;;;;;;;;;;5013444;28;20433;-71
2021/07/19 09:23:26;;;;;;;12.20;8.70;;;;;;;;;;5013390;28;20472;-70
2021/07/19 09:25:55;;;;;;;13.17;8.50;;;;;;;;;;5013426;28;20435;-70
2021/07/19 09:28:28;;;;;;;9.33;7.63;;;;;;;;;;5013611;28;20448;-71
2021/07/19 09:31:05;;;;;;;16.23;9.67;;;;;;;;;;5013807;28;20439;-70
2021/07/19 09:33:33;;;;;;;11.50;8.97;;;;;;;;;;5013330;28;20523;-71
2021/07/19 09:36:01;;;;;;;11.97;8.47;;;;;;;;;;5013734;28;20558;-70
2021/07/19 09:38:30;;;;;;;14.93;9.00;;;;;;;;;;5013225;28;20432;-71
2021/07/19 09:40:58;;;;;;;12.60;8.03;;;;;;;;;;5013523;28;20533;-71
2021/07/19 09:43:26;;;;;;;15.40;8.83;;;;;;;;;;5013452;28;20464;-68
2021/07/19 09:45:59;;;;;;;14.43;8.37;;;;;;;;;;5013096;28;20532;-71
2021/07/19 09:48:27;;;;;;;14.10;9.47;;;;;;;;;;5013223;28;20528;-71
2021/07/19 09:50:55;;;;;;;10.53;8.80;;;;;;;;;;5013054;28;20455;-71
2021/07/19 09:53:29;;;;;;;11.97;8.20;;;;;;;;;;5013014;28;20478;-71
2021/07/19 09:56:06;;;;;;;14.43;8.30;;;;;;;;;;5012974;28;21019;-71
2021/07/19 09:58:34;;;;;;;18.50;10.50;;;;;;;;;;5013885;28;20463;-70
2021/07/19 10:01:02;;;;;;;11.53;8.30;;;;;;;;;;5013081;28;20484;-70
2021/07/19 10:03:30;;;;;;;14.00;8.83;;;;;;;;;;5013018;28;20445;-70
2021/07/19 10:06:04;;;;;;;11.53;9.10;;;;;;;;;;5013446;28;20884;-71
2021/07/19 10:08:31;;;;;;;13.17;9.83;;;;;;;;;;5013470;28;20792;-68
2021/07/19 10:10:58;;;;;;;13.70;9.87;;;;;;;;;;5013355;28;20458;-71
2021/07/19 10:13:33;;;;;;;13.53;9.53;;;;;;;;;;5013516;28;20449;-70
2021/07/19 10:16:00;;;;;;;11.67;7.80;;;;;;;;;;5013528;28;20467;-70
2021/07/19 10:18:30;;;;;;;12.60;8.63;;;;;;;;;;5015612;28;20445;-70
2021/07/19 10:20:58;;;;;;;12.60;9.07;;;;;;;;;;5017246;28;20494;-71
2021/07/19 10:23:25;;;;;;;15.50;8.70;;;;;;;;;;5016648;28;20446;-70
2021/07/19 10:25:53;;;;;;;16.87;9.10;;;;;;;;;;5016285;28;20484;-70
2021/07/19 10:28:20;;;;;;;14.03;9.33;;;;;;;;;;5016679;28;20956;-70
2021/07/19 10:30:47;;;;;;;12.23;8.80;;;;;;;;;;5016703;28;20529;-70
2021/07/19 10:33:14;;;;;;;11.27;8.50;;;;;;;;;;5016862;28;20450;-70
2021/07/19 10:35:44;;;;;;;15.60;8.80;;;;;;;;;;5016777;28;20583;-70
2021/07/19 10:38:14;;;;;;;13.67;8.87;;;;;;;;;;5016447;28;20455;-70
2021/07/19 10:40:41;;;;;;;12.33;8.50;;;;;;;;;;5016671;28;20435;-70
2021/07/19 10:43:09;;;;;;;12.57;9.07;;;;;;;;;;5015895;28;20449;-70
2021/07/19 10:45:41;;;;;;;10.60;8.37;;;;;;;;;;5016008;28;20473;-70
2021/07/19 10:48:08;;;;;;;16.40;9.13;;;;;;;;;;5016264;28;20524;-71
2021/07/19 10:50:39;;;;;;;16.57;8.97;;;;;;;;;;5016454;28;20500;-70
2021/07/19 10:53:16;;;;;;;11.53;8.87;;;;;;;;;;5015850;28;20532;-71
2021/07/19 10:55:44;;;;;;;11.40;9.20;;;;;;;;;;5016119;28;20469;-68
2021/07/19 10:58:15;;;;;;;15.70;9.70;;;;;;;;;;5015749;28;20482;-70
2021/07/19 11:00:43;;;;;;;15.30;9.23;;;;;;;;;;5015831;28;20889;-71
2021/07/19 11:03:11;;;;;;;17.93;9.10;;;;;;;;;;5015931;28;20567;-71
2021/07/19 11:05:39;;;;;;;14.73;8.93;;;;;;;;;;5015761;28;20574;-69
2021/07/19 11:08:08;;;;;;;17.23;9.10;;;;;;;;;;5016731;28;20838;-70
2021/07/19 11:10:45;;;;;;;11.70;9.80;;;;;;;;;;5016314;28;20496;-70
2021/07/19 11:13:13;;;;;;;9.83;8.80;;;;;;;;;;5015913;28;20456;-70
2021/07/19 11:15:42;;;;;;;16.17;8.20;;;;;;;;;;5015924;28;20574;-70
2021/07/19 11:18:16;;;;;;;12.93;8.40;;;;;;;;;;5015948;28;20445;-69
2021/07/19 11:20:43;;;;;;;14.57;9.10;;;;;;;;;;5015239;28;20452;-70
2021/07/19 11:23:12;;;;;;;11.30;9.00;;;;;;;;;;5015357;28;20529;-69
2021/07/19 11:25:43;;;;;;;22.00;9.93;;;;;;;;;;5015227;28;20540;-69
2021/07/19 11:28:17;;;;;;;11.63;8.43;;;;;;;;;;5015174;28;20532;-69
2021/07/19 11:31:01;;;;;;;10.47;8.90;;;;;;;;;;5015180;28;20472;-70
2021/07/19 11:33:32;;;;;;;12.23;8.73;;;;;;;;;;5015577;28;20504;-69
2021/07/19 11:35:59;;;;;;;13.53;8.30;;;;;;;;;;5015539;28;20579;-69
2021/07/19 11:38:36;;;;;;;17.90;8.63;;;;;;;;;;5015374;28;20532;-70
2021/07/19 11:41:16;;;;;;;12.03;8.50;;;;;;;;;;5014965;28;20433;-70
2021/07/19 11:43:44;;;;;;;9.00;8.10;;;;;;;;;;5015225;28;20433;-70
2021/07/19 11:46:11;;;;;;;9.10;7.57;;;;;;;;;;5014905;28;20485;-70
2021/07/19 11:48:39;;;;;;;9.83;7.77;;;;;;;;;;5014936;28;20516;-70
2021/07/19 11:51:06;;;;;;;11.43;9.17;;;;;;;;;;5015076;28;20476;-70
2021/07/19 11:53:35;;;;;;;9.57;8.10;;;;;;;;;;5014707;28;20453;-70
2021/07/19 11:56:05;;;;;;;10.40;8.60;;;;;;;;;;5015213;28;20482;-70
2021/07/19 11:58:33;;;;;;;8.53;7.70;;;;;;;;;;5015445;28;20529;-70
2021/07/19 12:01:03;;;;;;;10.27;7.70;;;;;;;;;;5014591;28;20456;-71
2021/07/19 12:03:30;;;;;;;15.57;8.37;;;;;;;;;;5014568;28;20431;-70
2021/07/19 12:05:58;;;;;;;10.67;9.67;;;;;;;;;;5015008;28;20483;-70
2021/07/19 12:08:27;;;;;;;13.10;8.60;;;;;;;;;;5015159;28;20797;-70
2021/07/19 12:11:00;;;;;;;12.30;8.67;;;;;;;;;;5014788;28;20441;-70
2021/07/19 12:13:32;;;;;;;15.93;10.80;;;;;;;;;;5015190;28;20509;-71
2021/07/19 12:15:59;;;;;;;13.40;8.63;;;;;;;;;;5015494;28;20514;-71
2021/07/19 12:18:30;;;;;;;12.13;8.30;;;;;;;;;;5014545;28;20465;-71
2021/07/19 12:20:58;;;;;;;16.40;11.17;;;;;;;;;;5014663;28;20440;-71
2021/07/19 12:23:26;;;;;;;13.37;9.00;;;;;;;;;;5014662;28;20756;-70
2021/07/19 12:26:00;;;;;;;21.10;12.47;;;;;;;;;;5014599;28;20455;-69
2021/07/19 12:28:28;;;;;;;13.37;9.70;;;;;;;;;;5014382;28;20453;-70
2021/07/19 12:30:55;;;;;;;11.07;8.40;;;;;;;;;;5014480;28;20437;-70
2021/07/19 12:33:23;;;;;;;10.67;8.77;;;;;;;;;;5014263;28;20433;-71
2021/07/19 12:35:55;;;;;;;11.07;8.23;;;;;;;;;;5013942;28;20998;-71
2021/07/19 12:38:23;;;;;;;12.33;8.77;;;;;;;;;;5014321;28;20440;-70
2021/07/19 12:40:50;;;;;;;15.57;8.80;;;;;;;;;;5013606;28;20446;-71
2021/07/19 12:43:19;;;;;;;20.23;9.97;;;;;;;;;;5014246;28;20479;-70
2021/07/19 12:45:46;;;;;;;14.90;9.20;;;;;;;;;;5014161;28;20445;-70
2021/07/19 12:48:13;;;;;;;11.57;8.43;;;;;;;;;;5014088;28;20453;-70
2021/07/19 12:50:40;;;;;;;15.70;8.80;;;;;;;;;;5014500;28;20442;-70
2021/07/19 12:53:14;;;;;;;13.90;10.40;;;;;;;;;;5014052;28;20476;-72
2021/07/19 12:55:41;;;;;;;15.00;10.53;;;;;;;;;;5013801;28;20577;-70
2021/07/19 12:58:08;;;;;;;14.40;9.90;;;;;;;;;;5014024;28;20454;-72
2021/07/19 13:00:37;;;;;;;10.57;8.70;;;;;;;;;;5013659;28;20444;-73
2021/07/19 13:03:05;;;;;;;11.00;8.97;;;;;;;;;;5013823;28;20475;-72
2021/07/19 13:05:32;;;;;;;16.60;9.50;;;;;;;;;;5013248;28;20498;-73
2021/07/19 13:08:00;;;;;;;15.73;10.23;;;;;;;;;;5014044;28;20450;-73
2021/07/19 13:10:27;;;;;;;13.47;9.93;;;;;;;;;;5013580;28;20957;-73
2021/07/19 13:12:56;;;;;;;12.93;8.77;;;;;;;;;;5006989;28;20454;-73
2021/07/19 13:15:27;;;;;;;11.57;9.00;;;;;;;;;;5002699;28;20485;-73
2021/07/19 13:18:03;;;;;;;12.80;9.30;;;;;;;;;;4994297;28;20465;-73
2021/07/19 13:20:30;;;;;;;13.17;8.57;;;;;;;;;;4993936;28;20433;-73
2021/07/19 13:22:57;;;;;;;11.20;9.60;;;;;;;;;;4994154;28;20440;-73
2021/07/19 13:25:26;;;;;;;15.30;9.63;;;;;;;;;;4993787;28;20442;-73
2021/07/19 13:27:53;;;;;;;14.30;9.43;;;;;;;;;;4993797;28;20450;-73
2021/07/19 13:30:28;;;;;;;15.10;9.80;;;;;;;;;;4993668;28;20451;-73
2021/07/19 13:32:56;;;;;;;10.33;8.87;;;;;;;;;;4994088;28;20462;-73
2021/07/19 13:35:25;;;;;;;19.27;10.10;;;;;;;;;;4994051;28;20536;-77
2021/07/19 13:37:53;;;;;;;13.77;9.43;;;;;;;;;;4994463;28;20461;-73
2021/07/19 13:40:22;;;;;;;12.63;9.03;;;;;;;;;;4993645;28;20928;-73
2021/07/19 13:42:50;;;;;;;13.30;9.10;;;;;;;;;;5001109;28;20945;-73
2021/07/19 13:45:19;;;;;;;13.80;9.63;;;;;;;;;;5013560;28;20455;-73
2021/07/19 13:47:46;;;;;;;10.97;9.30;;;;;;;;;;5013188;28;20933;-73
2021/07/19 13:50:14;;;;;;;14.03;10.53;;;;;;;;;;5013533;28;20447;-74
2021/07/19 13:52:42;;;;;;;15.50;9.90;;;;;;;;;;5016430;28;20451;-74
2021/07/19 13:55:10;;;;;;;12.63;8.90;;;;;;;;;;5017778;28;20445;-75
2021/07/19 13:57:38;;;;;;;10.80;8.97;;;;;;;;;;5016860;28;20576;-75
2021/07/19 14:00:05;;;;;;;11.63;8.60;;;;;;;;;;5017278;28;20443;-74
2021/07/19 14:02:33;;;;;;;10.50;9.00;;;;;;;;;;5017428;28;20529;-74
2021/07/19 14:05:00;;;;;;;11.30;9.50;;;;;;;;;;5017121;28;20484;-73
2021/07/19 14:07:27;;;;;;;12.43;10.40;;;;;;;;;;5016793;28;20449;-73
2021/07/19 14:09:56;;;;;;;12.90;9.63;;;;;;;;;;5015440;28;21356;-74
2021/07/19 14:12:23;;;;;;;11.30;10.20;;;;;;;;;;5006880;28;20548;-73
2021/07/19 14:14:50;;;;;;;16.87;10.30;;;;;;;;;;5016906;28;20442;-73
2021/07/19 14:17:17;;;;;;;11.43;10.00;;;;;;;;;;5017176;28;20482;-73
2021/07/19 14:19:44;;;;;;;12.70;10.50;;;;;;;;;;5016484;28;20443;-73
2021/07/19 14:22:12;;;;;;;17.40;11.40;;;;;;;;;;5016481;28;20976;-73
2021/07/19 14:24:39;;;;;;;11.23;10.03;;;;;;;;;;5016723;28;20457;-72
2021/07/19 14:27:08;;;;;;;14.10;10.87;;;;;;;;;;5016608;28;20453;-73
2021/07/19 14:29:35;;;;;;;16.13;10.60;;;;;;;;;;5016318;28;20449;-73
2021/07/19 14:32:02;;;;;;;13.13;9.93;;;;;;;;;;5016215;28;20481;-72
2021/07/19 14:34:30;;;;;;;19.53;12.03;;;;;;;;;;5016241;28;20538;-72